createdAt,value
2022-08-01T00:06:34.765Z,1.20
2022-08-01T00:09:03.610Z,1.00
2022-08-01T00:11:56.279Z,1.40
2022-08-01T00:25:00.835Z,1.20
2022-08-01T00:30:54.397Z,1.20
2022-08-01T00:33:23.351Z,1.10
2022-08-01T00:39:15.842Z,1.00
2022-08-01T00:41:44.713Z,1.20
2022-08-01T00:44:13.437Z,1.20
2022-08-01T00:47:19.037Z,1.10
2022-08-01T00:53:18.770Z,1.00
2022-08-01T00:56:07.150Z,1.50
2022-08-01T00:59:14.052Z,1.50
2022-08-01T01:12:08.492Z,1.10
2022-08-01T01:21:38.830Z,1.10
2022-08-01T01:24:58.951Z,1.00
2022-08-01T01:31:08.002Z,1.00
2022-08-01T01:33:47.200Z,1.40
2022-08-01T01:39:22.705Z,1.30
2022-08-01T01:42:10.593Z,0.80
2022-08-01T01:45:04.352Z,1.20
2022-08-01T01:50:43.453Z,1.10
2022-08-01T01:53:32.356Z,1.40
2022-08-01T01:57:00.595Z,1.00
2022-08-01T01:59:50.843Z,1.40
2022-08-01T02:02:57.529Z,1.10
2022-08-01T02:12:08.159Z,1.00
2022-08-01T02:18:34.988Z,0.90
2022-08-01T02:24:10.305Z,1.20
2022-08-01T02:30:44.618Z,1.00
2022-08-01T02:33:53.293Z,1.00
2022-08-01T02:36:41.179Z,1.30
2022-08-01T02:42:21.564Z,1.40
2022-08-01T02:48:05.108Z,1.50
2022-08-01T02:50:35.377Z,1.30
2022-08-01T02:56:37.058Z,1.30
2022-08-01T02:59:27.109Z,1.40
2022-08-01T03:05:44.343Z,1.20
2022-08-01T03:08:50.325Z,1.60
2022-08-01T03:11:58.641Z,1.50
2022-08-01T03:17:39.235Z,1.40
2022-08-01T03:20:12.044Z,1.40
2022-08-01T03:22:59.420Z,1.80
2022-08-01T03:32:21.119Z,1.30
2022-08-01T03:38:56.934Z,1.50
2022-08-01T03:41:47.993Z,1.20
2022-08-01T03:48:22.452Z,1.20
2022-08-01T03:54:18.736Z,1.30
2022-08-01T03:57:43.298Z,1.50
2022-08-01T04:00:32.910Z,1.20
2022-08-01T04:03:21.371Z,1.40
2022-08-01T04:09:33.858Z,1.30
2022-08-01T04:16:22.560Z,1.40
2022-08-01T04:18:52.181Z,1.20
2022-08-01T04:22:15.249Z,1.10
2022-08-01T04:31:42.018Z,1.50
2022-08-01T04:34:52.646Z,1.70
2022-08-01T04:41:28.924Z,1.30
2022-08-01T04:50:47.217Z,1.20
2022-08-01T04:54:31.139Z,1.20
2022-08-01T04:57:40.996Z,1.60
2022-08-01T05:10:23.641Z,1.20
2022-08-01T05:12:52.842Z,1.30
2022-08-01T05:15:42.158Z,1.40
2022-08-01T05:18:47.757Z,1.20
2022-08-01T05:27:46.214Z,1.60
2022-08-01T05:34:15.699Z,1.70
2022-08-01T05:36:45.566Z,1.20
2022-08-01T05:46:47.813Z,1.80
2022-08-01T05:49:35.161Z,1.40
2022-08-01T05:52:22.192Z,1.70
2022-08-01T06:01:40.916Z,1.50
2022-08-01T06:11:04.265Z,1.40
2022-08-01T06:13:33.977Z,1.20
2022-08-01T06:16:35.496Z,1.30
2022-08-01T06:19:40.658Z,1.50
2022-08-01T06:25:19.388Z,1.50
2022-08-01T06:27:50.350Z,1.10
2022-08-01T06:30:37.634Z,1.20
2022-08-01T06:35:53.975Z,1.10
2022-08-01T06:39:00.360Z,1.50
2022-08-01T06:41:47.384Z,1.30
2022-08-01T06:45:29.788Z,1.30
2022-08-01T06:48:36.255Z,1.50
2022-08-01T06:51:23.753Z,1.40
2022-08-01T06:54:30.513Z,1.00
2022-08-01T06:57:18.250Z,1.20
2022-08-01T07:00:24.624Z,1.20
2022-08-01T07:03:11.529Z,1.20
2022-08-01T07:08:28.247Z,1.00
2022-08-01T07:11:52.910Z,1.40
2022-08-01T07:14:58.159Z,1.40
2022-08-01T07:17:45.827Z,1.40
2022-08-01T07:20:16.240Z,0.90
2022-08-01T07:23:03.957Z,1.10
2022-08-01T07:25:33.473Z,1.20
2022-08-01T07:28:21.316Z,1.00
2022-08-01T07:31:08.775Z,1.30
2022-08-01T07:34:50.517Z,1.00
2022-08-01T07:37:19.379Z,1.00
2022-08-01T07:40:30.172Z,0.70
2022-08-01T07:42:59.000Z,0.60
2022-08-01T07:46:04.295Z,0.80
2022-08-01T07:48:51.481Z,0.60
2022-08-01T07:51:38.691Z,1.10
2022-08-01T07:54:47.055Z,0.80
2022-08-01T07:57:18.327Z,0.70
2022-08-01T07:59:47.404Z,1.10
2022-08-01T08:02:35.033Z,0.60
2022-08-01T08:05:58.679Z,0.80
2022-08-01T08:09:06.649Z,0.50
2022-08-01T08:11:54.380Z,0.70
2022-08-01T08:18:13.159Z,0.60
2022-08-01T08:21:04.867Z,0.40
2022-08-01T08:23:53.863Z,0.60
2022-08-01T08:35:59.714Z,0.60
2022-08-01T08:42:13.071Z,0.50
2022-08-01T08:48:16.766Z,0.40
2022-08-01T08:50:49.155Z,0.50
2022-08-01T08:53:36.691Z,0.50
2022-08-01T09:02:43.606Z,0.40
2022-08-01T09:05:17.568Z,0.40
2022-08-01T09:11:31.626Z,0.60
2022-08-01T09:14:31.986Z,0.60
2022-08-01T09:17:23.074Z,0.40
2022-08-01T09:23:55.062Z,0.40
2022-08-01T09:26:33.936Z,0.30
2022-08-01T09:32:32.756Z,0.40
2022-08-01T09:38:30.927Z,0.30
2022-08-01T09:41:37.836Z,0.40
2022-08-01T09:44:09.419Z,0.50
2022-08-01T09:47:51.283Z,0.40
2022-08-01T09:51:07.188Z,0.30
2022-08-01T09:57:14.691Z,0.40
2022-08-01T10:00:02.923Z,0.40
2022-08-01T10:02:41.810Z,0.50
2022-08-01T10:05:37.095Z,0.30
2022-08-01T10:08:08.100Z,0.50
2022-08-01T10:11:13.845Z,0.30
2022-08-01T10:14:07.245Z,0.40
2022-08-01T10:16:57.366Z,0.40
2022-08-01T10:22:39.419Z,0.40
2022-08-01T10:25:48.738Z,0.50
2022-08-01T10:28:24.065Z,0.40
2022-08-01T10:31:50.266Z,0.30
2022-08-01T10:34:23.039Z,0.30
2022-08-01T10:36:53.934Z,0.40
2022-08-01T10:46:32.890Z,0.40
2022-08-01T10:49:22.650Z,0.60
2022-08-01T10:51:54.764Z,0.50
2022-08-01T10:59:06.141Z,0.40
2022-08-01T11:02:32.176Z,0.50
2022-08-01T11:16:41.881Z,0.40
2022-08-01T11:19:28.993Z,0.80
2022-08-01T11:22:34.455Z,0.60
2022-08-01T11:29:17.910Z,0.40
2022-08-01T11:33:11.648Z,0.70
2022-08-01T11:36:16.447Z,0.50
2022-08-01T11:39:22.254Z,0.60
2022-08-01T11:42:09.703Z,0.40
2022-08-01T11:44:56.537Z,0.40
2022-08-01T11:48:04.847Z,0.60
2022-08-01T11:51:15.938Z,0.50
2022-08-01T11:57:51.476Z,0.50
2022-08-01T12:00:43.880Z,0.50
2022-08-01T12:03:20.666Z,0.70
2022-08-01T12:06:28.223Z,0.70
2022-08-01T12:09:34.911Z,0.60
2022-08-01T12:15:10.421Z,0.50
2022-08-01T12:18:33.338Z,0.50
2022-08-01T12:21:38.849Z,0.50
2022-08-01T12:24:43.713Z,0.30
2022-08-01T12:30:40.630Z,0.40
2022-08-01T12:36:34.912Z,0.40
2022-08-01T12:39:30.058Z,0.40
2022-08-01T12:41:59.672Z,0.60
2022-08-01T12:47:57.964Z,0.30
2022-08-01T12:51:04.908Z,0.40
2022-08-01T12:53:40.411Z,0.30
2022-08-01T12:56:12.153Z,0.40
2022-08-01T13:02:11.511Z,0.30
2022-08-01T13:04:52.296Z,0.50
2022-08-01T13:07:45.843Z,0.60
2022-08-01T13:14:28.764Z,0.60
2022-08-01T13:17:15.942Z,0.50
2022-08-01T13:20:39.347Z,0.40
2022-08-01T13:24:04.149Z,0.80
2022-08-01T13:26:41.824Z,0.40
2022-08-01T13:29:12.768Z,0.40
2022-08-01T13:35:01.437Z,0.30
2022-08-01T13:38:10.085Z,0.30
2022-08-01T13:44:38.796Z,0.50
2022-08-01T13:51:02.124Z,0.50
2022-08-01T13:53:58.135Z,0.40
2022-08-01T13:57:03.695Z,0.50
2022-08-01T14:00:28.090Z,0.60
2022-08-01T14:09:18.244Z,0.50
2022-08-01T14:13:06.144Z,0.40
2022-08-01T14:15:37.545Z,0.50
2022-08-01T14:18:10.139Z,0.40
2022-08-01T14:21:01.293Z,0.50
2022-08-01T14:23:52.878Z,0.50
2022-08-01T14:26:57.797Z,0.40
2022-08-01T14:30:21.563Z,0.40
2022-08-01T14:33:28.038Z,0.40
2022-08-01T14:36:53.834Z,0.50
2022-08-01T14:42:48.918Z,0.50
2022-08-01T14:45:17.697Z,0.50
2022-08-01T14:47:46.808Z,0.40
2022-08-01T14:50:34.973Z,0.40
2022-08-01T14:53:22.900Z,0.50
2022-08-01T14:56:28.356Z,0.60
2022-08-01T15:03:15.917Z,0.40
2022-08-01T15:06:39.654Z,0.30
2022-08-01T15:09:09.613Z,0.40
2022-08-01T15:11:39.054Z,0.60
2022-08-01T15:17:53.063Z,0.50
2022-08-01T15:20:40.290Z,0.70
2022-08-01T15:33:22.621Z,0.60
2022-08-01T15:36:46.036Z,0.70
2022-08-01T15:39:56.578Z,0.70
2022-08-01T15:42:45.125Z,1.00
2022-08-01T15:45:49.123Z,0.50
2022-08-01T15:54:14.916Z,0.40
2022-08-01T15:57:19.908Z,0.60
2022-08-01T15:59:48.680Z,0.60
2022-08-01T16:03:12.283Z,0.60
2022-08-01T16:06:17.450Z,0.40
2022-08-01T16:09:04.767Z,0.40
2022-08-01T16:11:51.841Z,0.50
2022-08-01T16:15:15.992Z,0.70
2022-08-01T16:18:05.152Z,0.50
2022-08-01T16:20:34.103Z,0.40
2022-08-01T16:27:02.945Z,0.60
2022-08-01T16:29:31.985Z,0.50
2022-08-01T16:38:32.481Z,0.60
2022-08-01T16:41:01.379Z,0.60
2022-08-01T16:43:53.622Z,0.60
2022-08-01T16:49:10.738Z,0.60
2022-08-01T16:52:16.842Z,0.50
2022-08-01T16:55:22.604Z,0.60
2022-08-01T16:58:10.103Z,0.70
2022-08-01T17:02:03.354Z,0.50
2022-08-01T17:04:08.042Z,0.60
2022-08-01T17:06:55.572Z,0.60
2022-08-01T17:10:01.304Z,0.50
2022-08-01T17:15:53.919Z,0.40
2022-08-01T17:19:18.034Z,1.00
2022-08-01T17:22:22.815Z,1.20
2022-08-01T17:25:30.311Z,1.70
2022-08-01T17:28:17.649Z,1.40
2022-08-01T17:31:24.073Z,1.80
2022-08-01T17:34:11.788Z,1.80
2022-08-01T17:36:40.566Z,1.80
2022-08-01T17:39:38.434Z,2.30
2022-08-01T17:42:29.557Z,2.30
2022-08-01T17:45:28.167Z,2.40
2022-08-01T17:48:17.292Z,2.70
2022-08-01T17:51:06.676Z,2.30
2022-08-01T17:53:56.970Z,2.80
2022-08-01T17:56:28.595Z,3.70
2022-08-01T17:59:34.421Z,9.50
2022-08-01T18:02:04.366Z,20.90
2022-08-01T18:04:33.931Z,7.00
2022-08-01T18:07:22.240Z,17.40
2022-08-01T18:10:33.718Z,6.70
2022-08-01T18:13:21.221Z,22.60
2022-08-01T18:16:26.646Z,7.20
2022-08-01T18:22:33.585Z,9.30
2022-08-01T18:25:22.591Z,7.60
2022-08-01T18:28:35.395Z,7.60
2022-08-01T18:31:08.721Z,7.60
2022-08-01T18:33:37.389Z,10.70
2022-08-01T18:39:49.754Z,9.30
2022-08-01T18:42:55.699Z,22.90
2022-08-01T18:48:48.406Z,10.10
2022-08-01T18:51:37.897Z,7.70
2022-08-01T18:54:47.984Z,5.30
2022-08-01T19:00:59.693Z,3.70
2022-08-01T19:03:28.748Z,3.30
2022-08-01T19:06:35.384Z,8.30
2022-08-01T19:09:23.169Z,8.20
2022-08-01T19:11:52.601Z,9.10
2022-08-01T19:15:04.330Z,10.20
2022-08-01T19:18:10.151Z,7.10
2022-08-01T19:21:17.267Z,6.10
2022-08-01T19:24:25.079Z,5.10
2022-08-01T19:27:13.885Z,22.70
2022-08-01T19:30:38.828Z,4.00
2022-08-01T19:33:25.743Z,4.10
2022-08-01T19:36:34.908Z,4.20
2022-08-01T19:39:23.032Z,3.50
2022-08-01T19:42:47.231Z,2.10
2022-08-01T19:45:56.546Z,2.90
2022-08-01T19:48:49.956Z,2.70
2022-08-01T19:51:41.936Z,2.40
2022-08-01T19:54:13.411Z,2.70
2022-08-01T19:56:45.257Z,2.40
2022-08-01T19:59:51.429Z,1.70
2022-08-01T20:02:40.941Z,2.00
2022-08-01T20:06:05.403Z,4.60
2022-08-01T20:09:12.562Z,2.90
2022-08-01T20:12:20.267Z,3.20
2022-08-01T20:15:08.055Z,3.30
2022-08-01T20:20:45.431Z,2.80
2022-08-01T20:26:45.244Z,2.90
2022-08-01T20:32:42.854Z,3.20
2022-08-01T20:38:39.239Z,3.60
2022-08-01T20:47:38.851Z,3.00
2022-08-01T20:50:52.967Z,2.80
2022-08-01T20:53:24.114Z,2.10
2022-08-01T20:56:34.921Z,2.20
2022-08-01T20:59:54.629Z,1.90
2022-08-01T21:03:08.651Z,2.10
2022-08-01T21:06:24.751Z,1.30
2022-08-01T21:09:00.319Z,1.60
2022-08-01T21:12:23.577Z,1.40
2022-08-01T21:19:19.627Z,1.40
2022-08-01T21:22:15.744Z,1.20
2022-08-01T21:25:23.403Z,0.80
2022-08-01T21:28:32.926Z,0.80
2022-08-01T21:31:40.536Z,1.10
2022-08-01T21:34:46.726Z,0.90
2022-08-01T21:44:29.554Z,2.40
2022-08-01T21:47:18.945Z,2.30
2022-08-01T21:49:47.958Z,2.10
2022-08-01T21:53:01.650Z,3.30
2022-08-01T21:56:50.680Z,3.20
2022-08-01T22:05:51.096Z,2.30
2022-08-01T22:08:42.684Z,2.60
2022-08-01T22:11:31.121Z,2.60
2022-08-01T22:14:21.027Z,3.40
2022-08-01T22:17:10.319Z,4.10
2022-08-01T22:26:34.361Z,5.40
2022-08-01T22:29:41.570Z,4.50
2022-08-01T22:33:15.679Z,5.20
2022-08-01T22:36:32.009Z,4.80
2022-08-01T22:39:19.137Z,4.80
2022-08-01T22:42:09.155Z,4.50
2022-08-01T22:45:22.478Z,4.60
2022-08-01T22:48:18.239Z,5.30
2022-08-01T22:51:43.015Z,5.00
2022-08-01T22:54:50.928Z,5.40
2022-08-01T23:00:47.695Z,4.80
2022-08-01T23:03:36.502Z,4.50
2022-08-01T23:06:25.652Z,4.80
2022-08-01T23:09:15.534Z,4.80
2022-08-01T23:12:03.489Z,4.50
2022-08-01T23:14:37.925Z,3.80
2022-08-01T23:17:29.255Z,4.00
2022-08-01T23:20:20.419Z,4.80
2022-08-01T23:23:30.507Z,5.20
2022-08-01T23:28:49.743Z,3.00
2022-08-01T23:32:03.323Z,3.10
2022-08-01T23:41:57.172Z,4.30
2022-08-01T23:45:23.283Z,4.30
2022-08-01T23:54:40.296Z,2.80
2022-08-01T23:57:28.357Z,3.70
2022-08-01T23:59:57.499Z,4.00
